Welcome to our new website - Welkom op onze vernieuwde website - Bienvenue sur notre nouveau site web - Willkommen auf unserer neuen Website
Check our progress frequently. Prüfen Sie unsere Fortschritte regelmäßig. Consultez notre progression fréquemment. Komt u straks nog eens terug
Het weer levert geen direct gevaar op.    Er zijn geen waarschuwingen afgegeven.

Regen radar Meer informatie rain snow radar


Bezoek ook deze websites:

Template documentation
and downloads

And another site


U vindt ons ook hier:

UK Metoffice

WeatherCloud

Weather Underground

AWEKAS


METAR rapporten vliegvelden

Warning: A non-numeric value encountered in /customers/a/f/b/meteoassenede.be/httpd.www/weather28/metar/metarDisplay.php on line 166 Warning: A non-numeric value encountered in /customers/a/f/b/meteoassenede.be/httpd.www/weather28/metar/metarDisplay.php on line 166 Warning: A non-numeric value encountered in /customers/a/f/b/meteoassenede.be/httpd.www/weather28/metar/metarDisplay.php on line 166 Warning: A non-numeric value encountered in /customers/a/f/b/meteoassenede.be/httpd.www/weather28/metar/metarDisplay.php on line 166
   
EBBR - Brussels International Airport, Belgium
Afstand tot: W 14 km
Gewijzigd: 22-08-2019 14:50
Helder  
Helder  
   Wind: Westen 11 km/h
Wind: Westen 11 km/h
Temperatuur: 24°C
Dauwpunt: 9°C
Vochtigheid: 39%
Barometer: 1026 hPa
Zicht: meer dan 10 km
Bewolking: Helder
EBBR 221250Z 27006KT 250V350 CAVOK 24/09 Q1026 NOSIG
EBBE - Beauvechain (Bevekom), Belgium
Afstand tot: ZZO 17 km
Gewijzigd: 22-08-2019 13:55
Verouderd
Licht bewolkt  
Licht bewolkt  
   Wind: Westen 15 km/h
Wind: Westen 15 km/h
Temperatuur: 23°C
Dauwpunt: 9°C
Vochtigheid: 41%
Barometer: 1026 hPa
Bewolking: Licht bewolkt
Zicht: meer dan 10 km
Bewolking: Licht bewolkt 4000 ft
EBBE 221155Z 26008KT 9999 FEW040 23/09 Q1026 BLU BLU
EBDT - Schaffen, Belgium
Afstand tot: ONO 29 km
Gewijzigd: 22-08-2019 14:25
Gedeeltelijk bewolkt  
Gedeeltelijk bewolkt  
   Wind: ZZW 7 km/h
Wind: ZZW 7 km/h
Temperatuur: 25°C
Dauwpunt: 11°C
Vochtigheid: 42%
Barometer: 1026 hPa
Bewolking: Gedeeltelijk bewolkt
Zicht: meer dan 10 km
Bewolking: Licht bewolkt 4500 ft,
Gedeeltelijk bewolkt 25000 ft
EBDT 221225Z 20004KT 9999 FEW045 SCT250 25/11 Q1026 BLU BLU
EBAW - Antwerp/Deurne, Belgium
Afstand tot: NNW 38 km
Gewijzigd: 22-08-2019 14:50
Helder  
Helder  
   Wind: WZW 7 km/h
Wind: WZW 7 km/h
Temperatuur: 24°C
Dauwpunt: 10°C
Vochtigheid: 41%
Barometer: 1025 hPa
Zicht: meer dan 10 km
Bewolking: Helder
EBAW 221250Z 25004KT 200V340 CAVOK 24/10 Q1025 NOSIG
EBCI - Charleroi/Gosselies, Belgium
Afstand tot: ZZW 51 km
Gewijzigd: 22-08-2019 14:50
Helder  
Helder  
   Wind: WZW 13 km/h
Wind: WZW 13 km/h
Temperatuur: 24°C
Dauwpunt: 10°C
Vochtigheid: 41%
Barometer: 1026 hPa
Zicht: meer dan 10 km
Bewolking: Helder
EBCI 221250Z 25007KT 210V310 CAVOK 24/10 Q1026 NOSIG
EBLG - Bierset/Liege, Belgium
Afstand tot: OZO 60 km
Gewijzigd: 22-08-2019 14:50
Helder  
Helder  
   Wind: varieert 6 km/h
Wind: varieert 6 km/h
Temperatuur: 24°C
Dauwpunt: 11°C
Vochtigheid: 44%
Barometer: 1026 hPa
Zicht: meer dan 10 km
Bewolking: Helder
EBLG 221250Z VRB03KT CAVOK 24/11 Q1026 NOSIG

Script ontwikkeld door  Saratoga-weather.org Aangepast voor de template door  Weerstation Leuven

Apparatuur in gebruik:

Weerstation
Davis Vantage Pro2

Weerprogramma
Meteobridge

Weercomputer
TP-Link TL-MR3020

Webleverancier
One.com

Davis Vantage Pro2

Meteobridge

TP-Link TL-MR3020

One.com